createdAt,value
2018-06-25T00:00:36.743Z,87.20
2018-06-25T00:03:06.621Z,87.61
2018-06-25T00:05:36.334Z,86.88
2018-06-25T00:08:05.938Z,86.32
2018-06-25T00:10:35.235Z,86.85
2018-06-25T00:13:04.499Z,86.95
2018-06-25T00:15:34.307Z,87.57
2018-06-25T00:18:03.904Z,87.27
2018-06-25T00:20:33.477Z,87.05
2018-06-25T00:23:03.465Z,87.42
2018-06-25T00:25:33.222Z,87.00
2018-06-25T00:28:02.604Z,87.13
2018-06-25T00:30:31.951Z,86.97
2018-06-25T00:33:01.673Z,86.87
2018-06-25T00:35:31.146Z,87.18
2018-06-25T00:38:00.544Z,87.29
2018-06-25T00:40:30.078Z,86.76
2018-06-25T00:43:00.016Z,86.45
2018-06-25T00:45:30.051Z,86.58
2018-06-25T00:47:59.459Z,87.26
2018-06-25T00:50:29.415Z,88.00
2018-06-25T00:52:59.441Z,87.83
2018-06-25T00:55:28.850Z,87.72
2018-06-25T00:57:58.171Z,87.97
2018-06-25T01:00:27.449Z,89.21
2018-06-25T01:02:57.180Z,89.26
2018-06-25T01:05:26.761Z,89.34
2018-06-25T01:07:56.683Z,90.12
2018-06-25T01:10:26.692Z,89.62
2018-06-25T01:12:56.001Z,90.78
2018-06-25T01:15:25.431Z,90.21
2018-06-25T01:17:55.890Z,89.99
2018-06-25T01:20:26.475Z,89.67
2018-06-25T01:22:56.046Z,89.39
2018-06-25T01:25:25.370Z,89.51
2018-06-25T01:27:55.446Z,88.94
2018-06-25T01:30:24.992Z,89.09
2018-06-25T01:32:55.592Z,89.05
2018-06-25T01:35:25.442Z,88.52
2018-06-25T01:37:55.407Z,88.80
2018-06-25T01:40:25.194Z,88.53
2018-06-25T01:42:54.750Z,88.75
2018-06-25T01:45:24.062Z,89.11
2018-06-25T01:47:54.002Z,88.36
2018-06-25T01:50:23.180Z,87.94
2018-06-25T01:52:52.741Z,88.60
2018-06-25T01:55:22.499Z,88.42
2018-06-25T01:57:52.164Z,88.30
2018-06-25T02:00:21.968Z,87.95
2018-06-25T02:02:51.451Z,88.14
2018-06-25T02:05:21.222Z,87.95
2018-06-25T02:07:51.182Z,88.39
2018-06-25T02:10:21.082Z,88.11
2018-06-25T02:12:50.629Z,88.75
2018-06-25T02:15:20.597Z,88.79
2018-06-25T02:17:50.299Z,88.22
2018-06-25T02:20:19.914Z,88.79
2018-06-25T02:22:49.843Z,88.39
2018-06-25T02:25:19.528Z,88.66
2018-06-25T02:27:49.110Z,88.70
2018-06-25T02:30:19.161Z,88.37
2018-06-25T02:32:49.467Z,87.46
2018-06-25T02:35:19.039Z,87.75
2018-06-25T02:37:49.373Z,87.56
2018-06-25T02:40:19.268Z,87.36
2018-06-25T02:42:48.928Z,88.21
2018-06-25T02:45:18.367Z,87.92
2018-06-25T02:47:47.967Z,88.12
2018-06-25T02:50:18.168Z,87.64
2018-06-25T02:52:47.945Z,87.46
2018-06-25T02:55:17.209Z,87.48
2018-06-25T02:57:46.868Z,87.68
2018-06-25T03:00:16.208Z,86.95
2018-06-25T03:02:45.973Z,87.42
2018-06-25T03:05:16.268Z,87.85
2018-06-25T03:07:46.002Z,87.08
2018-06-25T03:10:15.281Z,87.85
2018-06-25T03:12:45.103Z,87.16
2018-06-25T03:15:14.950Z,86.81
2018-06-25T03:17:44.695Z,87.18
2018-06-25T03:20:14.346Z,86.83
2018-06-25T03:22:44.116Z,87.19
2018-06-25T03:25:13.435Z,86.95
2018-06-25T03:27:42.913Z,86.91
2018-06-25T03:30:12.223Z,87.39
2018-06-25T03:32:44.618Z,87.17
2018-06-25T03:35:13.897Z,86.98
2018-06-25T03:37:43.296Z,86.47
2018-06-25T03:40:12.728Z,86.77
2018-06-25T03:42:42.542Z,86.91
2018-06-25T03:45:12.429Z,87.21
2018-06-25T03:47:41.847Z,87.63
2018-06-25T03:50:11.451Z,88.17
2018-06-25T03:52:41.322Z,88.80
2018-06-25T03:55:10.771Z,88.43
2018-06-25T03:57:40.729Z,88.14
2018-06-25T04:00:10.195Z,87.53
2018-06-25T04:02:40.200Z,87.89
2018-06-25T04:05:10.047Z,87.98
2018-06-25T04:07:39.628Z,87.54
2018-06-25T04:10:09.052Z,88.90
2018-06-25T04:12:38.580Z,88.79
2018-06-25T04:15:08.637Z,88.69
2018-06-25T04:17:38.465Z,89.35
2018-06-25T04:20:07.855Z,89.93
2018-06-25T04:22:37.345Z,89.60
2018-06-25T04:25:07.342Z,89.67
2018-06-25T04:27:37.027Z,90.22
2018-06-25T04:30:06.328Z,91.01
2018-06-25T04:32:36.276Z,91.53
2018-06-25T04:35:06.336Z,91.60
2018-06-25T04:37:36.877Z,91.72
2018-06-25T04:40:06.495Z,90.06
2018-06-25T04:42:36.783Z,91.33
2018-06-25T04:45:06.844Z,91.72
2018-06-25T04:47:36.155Z,91.82
2018-06-25T04:50:05.712Z,92.36
2018-06-25T04:52:35.467Z,91.23
2018-06-25T04:55:05.424Z,91.23
2018-06-25T04:57:35.527Z,91.37
2018-06-25T05:00:05.153Z,91.68
2018-06-25T05:02:34.978Z,90.72
2018-06-25T05:05:05.187Z,91.05
2018-06-25T05:07:34.985Z,90.29
2018-06-25T05:10:04.914Z,90.66
2018-06-25T05:12:34.313Z,90.60
2018-06-25T05:15:03.801Z,89.96
2018-06-25T05:17:33.338Z,89.42
2018-06-25T05:20:03.588Z,89.77
2018-06-25T05:22:32.988Z,89.54
2018-06-25T05:25:02.398Z,89.35
2018-06-25T05:27:36.185Z,89.66
2018-06-25T05:30:05.612Z,89.68
2018-06-25T05:32:36.040Z,89.28
2018-06-25T05:35:05.883Z,89.01
2018-06-25T05:37:35.722Z,88.95
2018-06-25T05:40:05.244Z,89.29
2018-06-25T05:42:38.279Z,89.18
2018-06-25T05:45:08.032Z,89.75
2018-06-25T05:47:40.130Z,88.78
2018-06-25T05:50:09.405Z,88.67
2018-06-25T05:52:38.831Z,88.38
2018-06-25T05:55:08.912Z,88.23
2018-06-25T05:57:38.442Z,87.87
2018-06-25T06:00:12.175Z,87.73
2018-06-25T06:02:41.648Z,87.85
2018-06-25T06:05:11.627Z,87.74
2018-06-25T06:07:41.383Z,87.42
2018-06-25T06:10:10.931Z,88.46
2018-06-25T06:12:40.401Z,88.72
2018-06-25T06:15:10.383Z,89.05
2018-06-25T06:17:39.806Z,88.97
2018-06-25T06:20:13.068Z,88.27
2018-06-25T06:22:43.029Z,88.91
2018-06-25T06:25:12.807Z,88.98
2018-06-25T06:27:42.405Z,88.67
2018-06-25T06:30:11.782Z,88.66
2018-06-25T06:32:41.836Z,89.57
2018-06-25T06:35:11.375Z,88.51
2018-06-25T06:37:41.325Z,88.86
2018-06-25T06:40:10.791Z,88.38
2018-06-25T06:42:40.056Z,87.91
2018-06-25T06:45:09.780Z,87.80
2018-06-25T06:47:39.526Z,87.19
2018-06-25T06:50:08.925Z,87.64
2018-06-25T06:52:39.091Z,87.68
2018-06-25T06:55:08.447Z,88.69
2018-06-25T06:57:38.113Z,88.55
2018-06-25T07:00:07.633Z,88.14
2018-06-25T07:02:37.023Z,87.85
2018-06-25T07:05:06.923Z,88.80
2018-06-25T07:07:36.202Z,88.03
2018-06-25T07:10:05.516Z,88.46
2018-06-25T07:12:35.450Z,87.94
2018-06-25T07:15:05.159Z,88.44
2018-06-25T07:17:34.496Z,88.23
2018-06-25T07:20:04.284Z,88.93
2018-06-25T07:22:33.640Z,88.37
2018-06-25T07:25:03.051Z,88.24
2018-06-25T07:27:32.869Z,87.94
2018-06-25T07:30:02.394Z,87.89
2018-06-25T07:32:32.322Z,88.59
2018-06-25T07:35:02.032Z,88.15
2018-06-25T07:37:31.417Z,87.83
2018-06-25T07:40:01.079Z,87.84
2018-06-25T07:42:30.797Z,87.18
2018-06-25T07:45:00.960Z,86.85
2018-06-25T07:47:31.338Z,87.06
2018-06-25T07:50:03.871Z,86.34
2018-06-25T07:52:33.607Z,86.94
2018-06-25T07:55:03.059Z,86.58
2018-06-25T07:57:33.095Z,85.95
2018-06-25T08:00:03.397Z,85.04
2018-06-25T08:02:33.125Z,84.51
2018-06-25T08:05:03.039Z,84.90
2018-06-25T08:07:32.368Z,84.43
2018-06-25T08:10:02.381Z,84.03
2018-06-25T08:12:32.087Z,83.87
2018-06-25T08:15:01.716Z,84.22
2018-06-25T08:17:31.399Z,83.52
2018-06-25T08:20:01.107Z,84.03
2018-06-25T08:22:30.911Z,84.50
2018-06-25T08:25:00.248Z,84.04
2018-06-25T08:27:30.487Z,82.65
2018-06-25T08:30:00.686Z,82.97
2018-06-25T08:32:30.148Z,82.67
2018-06-25T08:34:59.636Z,82.28
2018-06-25T08:37:30.157Z,81.62
2018-06-25T08:39:59.490Z,81.14
2018-06-25T08:42:29.590Z,81.32
2018-06-25T08:44:58.940Z,82.24
2018-06-25T08:47:32.115Z,81.09
2018-06-25T08:50:01.887Z,80.29
2018-06-25T08:52:31.710Z,79.89
2018-06-25T08:55:01.308Z,79.48
2018-06-25T08:57:31.894Z,80.07
2018-06-25T09:00:01.633Z,79.15
2018-06-25T09:02:31.442Z,79.14
2018-06-25T09:05:01.835Z,79.40
2018-06-25T09:07:31.485Z,78.40
2018-06-25T09:10:01.412Z,78.50
2018-06-25T09:12:31.037Z,77.71
2018-06-25T09:15:00.910Z,77.52
2018-06-25T09:17:30.756Z,77.91
2018-06-25T09:20:00.145Z,77.43
2018-06-25T09:22:29.874Z,76.96
2018-06-25T09:24:59.344Z,76.23
2018-06-25T09:27:32.729Z,77.47
2018-06-25T09:30:02.101Z,77.01
2018-06-25T09:32:32.128Z,76.32
2018-06-25T09:35:01.557Z,76.04
2018-06-25T09:37:32.133Z,76.86
2018-06-25T09:40:01.871Z,76.69
2018-06-25T09:42:31.189Z,76.27
2018-06-25T09:45:01.516Z,75.94
2018-06-25T09:47:30.992Z,76.62
2018-06-25T09:50:00.720Z,76.57
2018-06-25T09:52:30.513Z,76.53
2018-06-25T09:55:00.847Z,76.84
2018-06-25T09:57:30.560Z,75.72
2018-06-25T09:59:59.880Z,75.71
2018-06-25T10:02:29.180Z,76.29
2018-06-25T10:05:00.017Z,75.77
2018-06-25T10:07:29.468Z,75.70
2018-06-25T10:09:59.226Z,75.31
2018-06-25T10:12:28.558Z,76.01
2018-06-25T10:14:58.203Z,75.57
2018-06-25T10:17:27.888Z,75.64
2018-06-25T10:19:57.947Z,75.96
2018-06-25T10:22:27.604Z,75.75
2018-06-25T10:24:57.082Z,76.07
2018-06-25T10:27:26.893Z,76.05
2018-06-25T10:29:56.493Z,76.49
2018-06-25T10:32:26.259Z,75.68
2018-06-25T10:34:55.667Z,76.69
2018-06-25T10:37:25.895Z,75.93
2018-06-25T10:39:55.624Z,75.80
2018-06-25T10:42:25.061Z,75.42
2018-06-25T10:44:54.432Z,76.21
2018-06-25T10:47:24.480Z,76.54
2018-06-25T10:49:53.887Z,76.45
2018-06-25T10:52:24.258Z,75.33
2018-06-25T10:54:53.791Z,75.80
2018-06-25T10:57:23.530Z,75.83
2018-06-25T10:59:54.044Z,75.30
2018-06-25T11:02:23.251Z,75.44
2018-06-25T11:04:53.155Z,75.64
2018-06-25T11:07:22.905Z,75.23
2018-06-25T11:09:56.616Z,75.68
2018-06-25T11:12:25.925Z,75.70
2018-06-25T11:14:55.591Z,75.46
2018-06-25T11:17:25.766Z,75.53
2018-06-25T11:19:55.149Z,75.76
2018-06-25T11:22:25.302Z,75.77
2018-06-25T11:24:54.899Z,75.55
2018-06-25T11:27:24.353Z,75.87
2018-06-25T11:29:53.737Z,75.35
2018-06-25T11:32:29.343Z,76.25
2018-06-25T11:34:58.979Z,75.28
2018-06-25T11:37:29.432Z,75.17
2018-06-25T11:39:59.459Z,75.09
2018-06-25T11:42:29.477Z,75.22
2018-06-25T11:44:59.760Z,74.44
2018-06-25T11:47:29.498Z,73.79
2018-06-25T11:49:59.682Z,73.10
2018-06-25T11:52:29.509Z,72.45
2018-06-25T11:54:59.657Z,72.40
2018-06-25T11:57:29.327Z,71.78
2018-06-25T11:59:58.988Z,71.45
2018-06-25T12:02:28.271Z,71.24
2018-06-25T12:04:58.354Z,71.91
2018-06-25T12:07:28.427Z,71.87
2018-06-25T12:09:57.784Z,71.49
2018-06-25T12:12:27.664Z,71.19
2018-06-25T12:14:57.044Z,70.38
2018-06-25T12:17:26.640Z,68.96
2018-06-25T12:19:56.010Z,69.14
2018-06-25T12:22:25.631Z,67.61
2018-06-25T12:24:56.033Z,67.71
2018-06-25T12:27:25.513Z,67.95
2018-06-25T12:29:55.095Z,66.53
2018-06-25T12:32:25.105Z,62.88
2018-06-25T12:34:55.103Z,62.67
2018-06-25T12:37:25.399Z,62.91
2018-06-25T12:39:55.570Z,64.00
2018-06-25T12:42:25.484Z,64.08
2018-06-25T12:44:55.219Z,63.60
2018-06-25T12:47:24.667Z,63.33
2018-06-25T12:49:54.730Z,63.78
2018-06-25T12:52:24.419Z,63.31
2018-06-25T12:54:54.247Z,60.66
2018-06-25T12:57:24.186Z,61.99
2018-06-25T12:59:53.846Z,62.21
2018-06-25T13:02:23.315Z,61.54
2018-06-25T13:04:52.722Z,61.20
2018-06-25T13:07:22.425Z,61.07
2018-06-25T13:09:52.292Z,60.42
2018-06-25T13:12:22.657Z,58.65
2018-06-25T13:14:52.114Z,57.62
2018-06-25T13:17:21.929Z,58.13
2018-06-25T13:19:51.932Z,58.13
2018-06-25T13:22:22.189Z,57.42
2018-06-25T13:24:52.019Z,57.31
2018-06-25T13:27:22.044Z,58.26
2018-06-25T13:29:51.452Z,59.68
2018-06-25T13:32:20.808Z,58.91
2018-06-25T13:34:50.189Z,58.72
2018-06-25T13:37:19.900Z,58.33
2018-06-25T13:39:49.345Z,57.46
2018-06-25T13:42:18.944Z,56.23
2018-06-25T13:44:48.335Z,57.07
2018-06-25T13:47:18.042Z,58.66
2018-06-25T13:49:47.912Z,59.17
2018-06-25T13:52:18.602Z,59.65
2018-06-25T13:54:49.549Z,59.38
2018-06-25T13:57:20.114Z,58.80
2018-06-25T13:59:49.855Z,57.69
2018-06-25T14:02:19.745Z,57.80
2018-06-25T14:04:49.025Z,58.57
2018-06-25T14:07:19.268Z,58.32
2018-06-25T14:09:48.624Z,56.59
2018-06-25T14:12:17.880Z,57.54
2018-06-25T14:14:47.274Z,57.09
2018-06-25T14:17:16.869Z,57.98
2018-06-25T14:19:47.323Z,58.39
2018-06-25T14:22:17.107Z,58.31
2018-06-25T14:24:49.803Z,56.64
2018-06-25T14:27:19.695Z,56.04
2018-06-25T14:29:49.359Z,54.59
2018-06-25T14:32:24.236Z,54.69
2018-06-25T14:34:58.712Z,54.12
2018-06-25T14:37:28.994Z,54.08
2018-06-25T14:39:58.959Z,54.50
2018-06-25T14:42:28.938Z,53.19
2018-06-25T14:44:59.014Z,53.83
2018-06-25T14:47:29.611Z,54.63
2018-06-25T14:49:59.722Z,54.65
2018-06-25T14:52:29.980Z,55.56
2018-06-25T14:54:59.983Z,54.95
2018-06-25T14:57:29.758Z,55.59
2018-06-25T14:59:59.886Z,56.55
2018-06-25T15:02:29.928Z,55.04
2018-06-25T15:04:59.408Z,55.19
2018-06-25T15:07:29.211Z,55.21
2018-06-25T15:09:59.215Z,55.80
2018-06-25T15:12:28.586Z,54.32
2018-06-25T15:14:58.607Z,53.99
2018-06-25T15:17:28.447Z,53.42
2018-06-25T15:19:58.110Z,52.96
2018-06-25T15:22:30.937Z,52.82
2018-06-25T15:25:00.449Z,53.29
2018-06-25T15:27:30.189Z,52.38
2018-06-25T15:30:03.383Z,52.73
2018-06-25T15:32:33.367Z,51.33
2018-06-25T15:35:03.203Z,51.00
2018-06-25T15:37:32.803Z,50.86
2018-06-25T15:40:02.139Z,50.79
2018-06-25T15:42:31.916Z,50.95
2018-06-25T15:45:05.007Z,50.34
2018-06-25T15:47:34.386Z,50.51
2018-06-25T15:50:03.807Z,50.25
2018-06-25T15:52:33.157Z,50.88
2018-06-25T15:55:03.976Z,50.41
2018-06-25T15:57:33.547Z,49.79
2018-06-25T16:00:03.260Z,49.27
2018-06-25T16:02:32.892Z,49.59
2018-06-25T16:05:02.145Z,50.66
2018-06-25T16:07:32.386Z,50.29
2018-06-25T16:10:02.530Z,49.51
2018-06-25T16:12:31.807Z,50.10
2018-06-25T16:15:01.908Z,49.41
2018-06-25T16:17:31.718Z,49.55
2018-06-25T16:20:01.605Z,49.24
2018-06-25T16:22:32.172Z,49.96
2018-06-25T16:25:02.282Z,50.13
2018-06-25T16:27:31.644Z,50.05
2018-06-25T16:30:00.989Z,50.25
2018-06-25T16:32:31.330Z,50.39
2018-06-25T16:35:01.440Z,50.50
2018-06-25T16:37:32.167Z,50.19
2018-06-25T16:40:02.899Z,50.63
2018-06-25T16:42:32.299Z,49.77
2018-06-25T16:45:01.883Z,50.16
2018-06-25T16:47:31.492Z,50.29
2018-06-25T16:50:01.130Z,49.92
2018-06-25T16:52:30.472Z,50.39
2018-06-25T16:55:00.245Z,50.51
2018-06-25T16:57:30.148Z,49.90
2018-06-25T17:00:00.437Z,50.26
2018-06-25T17:02:30.399Z,50.59
2018-06-25T17:04:59.811Z,50.68
2018-06-25T17:07:29.293Z,50.88
2018-06-25T17:09:59.000Z,50.38
2018-06-25T17:12:28.370Z,50.44
2018-06-25T17:15:01.323Z,49.97
2018-06-25T17:17:31.147Z,50.08
2018-06-25T17:20:00.473Z,50.32
2018-06-25T17:22:30.698Z,50.88
2018-06-25T17:24:59.985Z,50.94
2018-06-25T17:27:31.055Z,50.14
2018-06-25T17:30:00.951Z,50.31
2018-06-25T17:32:30.661Z,50.43
2018-06-25T17:35:00.403Z,50.04
2018-06-25T17:37:30.067Z,50.70
2018-06-25T17:40:00.048Z,50.89
2018-06-25T17:42:29.335Z,50.53
2018-06-25T17:44:58.925Z,50.70
2018-06-25T17:47:28.213Z,50.42
2018-06-25T17:49:57.942Z,50.31
2018-06-25T17:52:27.490Z,50.39
2018-06-25T17:54:57.284Z,49.82
2018-06-25T17:57:27.428Z,49.68
2018-06-25T17:59:57.305Z,49.63
2018-06-25T18:02:26.919Z,50.18
2018-06-25T18:04:56.485Z,49.71
2018-06-25T18:07:25.812Z,49.75
2018-06-25T18:09:55.207Z,49.94
2018-06-25T18:12:24.906Z,50.05
2018-06-25T18:14:54.669Z,50.56
2018-06-25T18:17:24.436Z,50.44
2018-06-25T18:19:54.092Z,50.99
2018-06-25T18:22:23.487Z,51.08
2018-06-25T18:24:52.994Z,51.58
2018-06-25T18:27:22.888Z,51.76
2018-06-25T18:29:52.407Z,51.98
2018-06-25T18:32:25.936Z,52.35
2018-06-25T18:34:58.625Z,53.02
2018-06-25T18:37:28.586Z,53.00
2018-06-25T18:39:57.870Z,53.63
2018-06-25T18:42:27.188Z,53.67
2018-06-25T18:45:00.384Z,53.77
2018-06-25T18:47:29.840Z,54.03
2018-06-25T18:49:59.872Z,54.35
2018-06-25T18:52:29.344Z,54.38
2018-06-25T18:54:59.277Z,55.09
2018-06-25T18:57:28.984Z,54.77
2018-06-25T18:59:58.484Z,55.70
2018-06-25T19:02:27.873Z,55.47
2018-06-25T19:04:57.317Z,56.15
2018-06-25T19:07:26.986Z,56.23
2018-06-25T19:09:56.779Z,56.64
2018-06-25T19:12:26.093Z,56.47
2018-06-25T19:14:55.508Z,57.00
2018-06-25T19:17:25.205Z,56.64
2018-06-25T19:19:55.107Z,56.93
2018-06-25T19:22:24.727Z,57.11
2018-06-25T19:24:54.496Z,57.10
2018-06-25T19:27:24.165Z,57.37
2018-06-25T19:29:53.650Z,57.82
2018-06-25T19:32:23.310Z,58.18
2018-06-25T19:34:52.803Z,57.95
2018-06-25T19:37:22.229Z,58.01
2018-06-25T19:39:51.666Z,58.64
2018-06-25T19:42:21.258Z,58.32
2018-06-25T19:44:50.700Z,59.09
2018-06-25T19:47:20.388Z,59.17
2018-06-25T19:49:49.974Z,59.64
2018-06-25T19:52:19.397Z,60.08
2018-06-25T19:54:49.081Z,60.11
2018-06-25T19:57:18.400Z,60.93
2018-06-25T19:59:47.833Z,61.71
2018-06-25T20:02:17.563Z,61.48
2018-06-25T20:04:47.376Z,61.77
2018-06-25T20:07:20.861Z,62.60
2018-06-25T20:09:53.589Z,62.40
2018-06-25T20:12:23.130Z,62.69
2018-06-25T20:14:52.318Z,62.47
2018-06-25T20:17:22.036Z,62.39
2018-06-25T20:19:52.073Z,63.51
2018-06-25T20:22:21.760Z,62.84
2018-06-25T20:24:51.566Z,63.83
2018-06-25T20:27:21.267Z,63.84
2018-06-25T20:29:51.200Z,64.11
2018-06-25T20:32:20.446Z,64.56
2018-06-25T20:34:49.751Z,64.51
2018-06-25T20:37:19.300Z,64.91
2018-06-25T20:39:48.775Z,65.14
2018-06-25T20:42:18.056Z,65.65
2018-06-25T20:44:47.642Z,65.47
2018-06-25T20:47:17.570Z,65.85
2018-06-25T20:49:48.033Z,66.15
2018-06-25T20:52:17.760Z,66.16
2018-06-25T20:54:47.276Z,65.94
2018-06-25T20:57:16.706Z,66.55
2018-06-25T20:59:46.442Z,66.74
2018-06-25T21:02:16.584Z,66.77
2018-06-25T21:04:46.447Z,66.65
2018-06-25T21:07:16.208Z,67.62
2018-06-25T21:09:45.675Z,68.03
2018-06-25T21:12:15.488Z,68.15
2018-06-25T21:14:45.127Z,68.16
2018-06-25T21:17:14.495Z,68.25
2018-06-25T21:19:44.265Z,68.28
2018-06-25T21:22:13.680Z,68.45
2018-06-25T21:24:43.641Z,68.39
2018-06-25T21:27:13.659Z,68.71
2018-06-25T21:29:43.233Z,68.79
2018-06-25T21:32:13.038Z,68.76
2018-06-25T21:34:42.757Z,68.94
2018-06-25T21:37:12.351Z,69.15
2018-06-25T21:39:42.247Z,69.43
2018-06-25T21:42:13.055Z,69.15
2018-06-25T21:44:42.846Z,69.26
2018-06-25T21:47:12.587Z,68.68
2018-06-25T21:49:42.256Z,68.99
2018-06-25T21:52:12.223Z,68.89
2018-06-25T21:54:41.905Z,68.48
2018-06-25T21:57:11.633Z,68.78
2018-06-25T21:59:41.160Z,68.92
2018-06-25T22:02:10.778Z,69.10
2018-06-25T22:04:41.001Z,69.38
2018-06-25T22:07:11.306Z,69.20
2018-06-25T22:09:40.642Z,69.16
2018-06-25T22:12:10.626Z,69.10
2018-06-25T22:14:40.344Z,68.92
2018-06-25T22:17:10.077Z,68.73
2018-06-25T22:19:39.897Z,68.76
2018-06-25T22:22:09.289Z,69.14
2018-06-25T22:24:38.676Z,68.72
2018-06-25T22:27:08.351Z,69.29
2018-06-25T22:29:38.213Z,69.35
2018-06-25T22:32:07.954Z,69.77
2018-06-25T22:34:37.580Z,69.81
2018-06-25T22:37:06.903Z,69.84
2018-06-25T22:39:36.279Z,70.08
2018-06-25T22:42:05.963Z,70.03
2018-06-25T22:44:35.828Z,69.90
2018-06-25T22:47:05.643Z,69.94
2018-06-25T22:49:35.349Z,69.68
2018-06-25T22:52:05.583Z,70.13
2018-06-25T22:54:35.445Z,70.32
2018-06-25T22:57:05.294Z,70.81
2018-06-25T22:59:36.084Z,71.41
2018-06-25T23:02:05.485Z,70.61
2018-06-25T23:04:34.813Z,70.57
2018-06-25T23:07:04.216Z,71.07
2018-06-25T23:09:34.137Z,71.09
2018-06-25T23:12:03.485Z,71.57
2018-06-25T23:14:32.815Z,71.94
2018-06-25T23:17:01.991Z,71.70
2018-06-25T23:19:31.317Z,71.90
2018-06-25T23:22:01.273Z,71.77
2018-06-25T23:24:30.915Z,71.84
2018-06-25T23:27:00.802Z,71.53
2018-06-25T23:29:30.773Z,72.07
2018-06-25T23:32:00.040Z,71.95
2018-06-25T23:34:30.239Z,71.57
2018-06-25T23:37:00.044Z,72.02
2018-06-25T23:39:29.799Z,71.79
2018-06-25T23:41:59.225Z,71.93
2018-06-25T23:44:28.775Z,72.58
2018-06-25T23:46:59.378Z,73.03
2018-06-25T23:49:28.992Z,73.16
2018-06-25T23:51:58.663Z,73.82
2018-06-25T23:54:28.199Z,73.91
2018-06-25T23:56:57.882Z,73.54
2018-06-25T23:59:27.530Z,72.82
